Time;durP1;ratioP1;P1;durP2;ratioP2;P2;SDS_P1;SDS_P2;PMS_P1;PMS_P2;Temp;Humidity;BMP_temperature;BMP_pressure;BME280_temperature;BME280_humidity;BME280_pressure;Samples;Min_cycle;Max_cycle;Signal;HPM_P1;HPM_P2
2022/07/13 00:02:04;;;;;;;0.22;0.17;;;;;;;;;;4994219;28;20909;-83
2022/07/13 00:04:30;;;;;;;0.10;0.10;;;;;;;;;;4977791;28;20526;-85
2022/07/13 00:06:56;;;;;;;0.10;0.10;;;;;;;;;;4994588;28;20411;-83
2022/07/13 00:09:22;;;;;;;0.10;0.10;;;;;;;;;;4976963;28;20430;-85
2022/07/13 00:11:48;;;;;;;0.10;0.10;;;;;;;;;;4976986;28;20422;-84
2022/07/13 00:14:14;;;;;;;0.10;0.10;;;;;;;;;;4994803;28;20417;-82
2022/07/13 00:16:40;;;;;;;0.10;0.10;;;;;;;;;;4994658;28;20520;-82
2022/07/13 00:19:07;;;;;;;0.10;0.10;;;;;;;;;;4994346;28;20406;-83
2022/07/13 00:21:33;;;;;;;0.20;0.20;;;;;;;;;;4994221;28;20497;-84
2022/07/13 00:23:59;;;;;;;0.10;0.10;;;;;;;;;;4993263;28;20421;-83
2022/07/13 00:26:25;;;;;;;0.10;0.10;;;;;;;;;;4994415;28;20406;-84
2022/07/13 00:28:52;;;;;;;0.00;0.00;;;;;;;;;;4994178;28;20842;-85
2022/07/13 00:31:18;;;;;;;0.20;0.20;;;;;;;;;;4977213;28;20422;-85
2022/07/13 00:33:44;;;;;;;0.20;0.20;;;;;;;;;;4994048;28;20419;-82
2022/07/13 00:36:10;;;;;;;0.10;0.10;;;;;;;;;;4994017;28;20434;-84
2022/07/13 00:38:36;;;;;;;0.10;0.10;;;;;;;;;;4974755;28;20445;-83
2022/07/13 00:41:05;;;;;;;0.10;0.10;;;;;;;;;;4976743;28;20426;-83
2022/07/13 00:43:31;;;;;;;0.10;0.10;;;;;;;;;;4993896;28;20425;-84
2022/07/13 00:45:57;;;;;;;0.08;0.08;;;;;;;;;;4960550;28;20429;-83
2022/07/13 00:48:23;;;;;;;0.10;0.10;;;;;;;;;;4994071;28;20403;-83
2022/07/13 00:50:50;;;;;;;0.10;0.10;;;;;;;;;;4993631;28;20506;-79
2022/07/13 00:53:16;;;;;;;0.10;0.10;;;;;;;;;;4993876;28;20469;-85
2022/07/13 00:55:42;;;;;;;0.10;0.10;;;;;;;;;;4993963;28;20411;-84
2022/07/13 00:58:09;;;;;;;0.10;0.10;;;;;;;;;;4993404;28;20430;-83
2022/07/13 01:00:36;;;;;;;0.10;0.10;;;;;;;;;;4993739;28;20414;-81
2022/07/13 01:03:02;;;;;;;0.10;0.10;;;;;;;;;;4993442;28;20421;-82
2022/07/13 01:05:29;;;;;;;0.10;0.10;;;;;;;;;;4976342;28;20834;-83
2022/07/13 01:07:55;;;;;;;0.10;0.10;;;;;;;;;;4992942;28;20893;-82
2022/07/13 01:10:21;;;;;;;0.10;0.10;;;;;;;;;;4976224;28;20430;-82
2022/07/13 01:12:48;;;;;;;0.10;0.10;;;;;;;;;;4993509;28;20410;-81
2022/07/13 01:15:14;;;;;;;0.10;0.10;;;;;;;;;;4993217;28;20888;-81
2022/07/13 01:17:40;;;;;;;0.10;0.10;;;;;;;;;;4993509;28;20426;-84
2022/07/13 01:20:06;;;;;;;0.10;0.10;;;;;;;;;;4993600;28;20469;-85
2022/07/13 01:22:38;;;;;;;0.10;0.10;;;;;;;;;;4994175;28;20460;-85
2022/07/13 01:25:05;;;;;;;0.10;0.10;;;;;;;;;;4994630;28;20406;-85
2022/07/13 01:27:34;;;;;;;0.20;0.20;;;;;;;;;;4997053;28;20442;-84
2022/07/13 01:30:00;;;;;;;0.10;0.10;;;;;;;;;;4998020;28;20490;-86
2022/07/13 01:32:26;;;;;;;0.10;0.10;;;;;;;;;;4997293;28;20897;-86
2022/07/13 01:34:52;;;;;;;0.10;0.10;;;;;;;;;;4995231;28;20406;-87
2022/07/13 01:37:18;;;;;;;0.10;0.10;;;;;;;;;;4994922;28;20430;-86
2022/07/13 01:39:45;;;;;;;0.10;0.10;;;;;;;;;;4995838;28;20414;-86
2022/07/13 01:42:11;;;;;;;0.10;0.10;;;;;;;;;;4994876;28;20434;-85
2022/07/13 01:44:37;;;;;;;0.10;0.10;;;;;;;;;;4977557;28;20506;-85
2022/07/13 01:47:09;;;;;;;0.10;0.10;;;;;;;;;;4993857;28;20889;-84
2022/07/13 01:49:35;;;;;;;0.10;0.10;;;;;;;;;;4994849;28;20414;-87
2022/07/13 01:52:02;;;;;;;0.90;0.30;;;;;;;;;;4995123;28;20856;-84
2022/07/13 01:54:28;;;;;;;0.10;0.10;;;;;;;;;;4995041;28;20410;-86
2022/07/13 01:56:54;;;;;;;0.10;0.10;;;;;;;;;;4995081;28;20422;-84
2022/07/13 01:59:20;;;;;;;0.10;0.10;;;;;;;;;;4975557;28;20414;-86
2022/07/13 02:01:46;;;;;;;2.70;0.50;;;;;;;;;;4992875;28;20411;-85
2022/07/13 02:04:12;;;;;;;0.10;0.10;;;;;;;;;;4992744;28;20433;-86
2022/07/13 02:06:38;;;;;;;0.10;0.10;;;;;;;;;;4994407;28;20457;-87
2022/07/13 02:09:04;;;;;;;0.10;0.10;;;;;;;;;;4992604;28;20503;-86
2022/07/13 02:11:30;;;;;;;0.15;0.15;;;;;;;;;;4992494;28;20406;-86
2022/07/13 02:13:57;;;;;;;0.20;0.20;;;;;;;;;;4992445;28;20405;-81
2022/07/13 02:16:23;;;;;;;0.10;0.10;;;;;;;;;;4992534;28;20426;-85
2022/07/13 02:18:49;;;;;;;0.10;0.10;;;;;;;;;;4992501;28;20489;-84
2022/07/13 02:21:15;;;;;;;0.10;0.10;;;;;;;;;;4992182;28;20402;-86
2022/07/13 02:23:41;;;;;;;0.70;0.40;;;;;;;;;;4992298;28;20493;-85
2022/07/13 02:26:07;;;;;;;0.10;0.10;;;;;;;;;;4974871;28;20429;-85
2022/07/13 02:28:33;;;;;;;0.10;0.10;;;;;;;;;;4992323;28;20398;-84
2022/07/13 02:30:59;;;;;;;0.10;0.10;;;;;;;;;;4991823;28;20410;-83
2022/07/13 02:33:25;;;;;;;0.10;0.10;;;;;;;;;;4975304;28;20505;-83
2022/07/13 02:35:51;;;;;;;0.10;0.10;;;;;;;;;;4991887;28;20489;-84
2022/07/13 02:38:17;;;;;;;0.10;0.10;;;;;;;;;;4992062;28;20410;-85
2022/07/13 02:40:43;;;;;;;0.10;0.10;;;;;;;;;;4974917;28;20414;-84
2022/07/13 02:43:09;;;;;;;0.10;0.10;;;;;;;;;;4991949;28;20409;-83
2022/07/13 02:45:35;;;;;;;0.10;0.10;;;;;;;;;;4991961;28;20410;-84
2022/07/13 02:48:01;;;;;;;0.10;0.10;;;;;;;;;;4991265;28;20402;-81
2022/07/13 02:50:27;;;;;;;0.10;0.10;;;;;;;;;;4992033;28;20409;-83
2022/07/13 02:52:53;;;;;;;0.10;0.10;;;;;;;;;;4974459;28;20751;-81
2022/07/13 02:55:19;;;;;;;0.10;0.10;;;;;;;;;;4991898;28;20413;-84
2022/07/13 02:57:46;;;;;;;0.10;0.10;;;;;;;;;;4991896;28;20458;-85
2022/07/13 03:00:12;;;;;;;0.10;0.10;;;;;;;;;;4974183;28;20407;-84
2022/07/13 03:02:38;;;;;;;0.17;0.17;;;;;;;;;;4991969;28;20406;-80
2022/07/13 03:05:05;;;;;;;0.17;0.17;;;;;;;;;;4991507;28;20406;-83
2022/07/13 03:07:31;;;;;;;0.10;0.10;;;;;;;;;;4974284;28;20422;-84
2022/07/13 03:09:57;;;;;;;0.10;0.10;;;;;;;;;;4958509;28;20419;-86
2022/07/13 03:12:23;;;;;;;0.10;0.10;;;;;;;;;;4991700;28;20450;-85
2022/07/13 03:14:49;;;;;;;0.10;0.10;;;;;;;;;;4992152;28;20463;-87
2022/07/13 03:17:15;;;;;;;0.10;0.10;;;;;;;;;;4974067;28;20430;-85
2022/07/13 03:19:41;;;;;;;0.10;0.10;;;;;;;;;;4991807;28;20410;-85
2022/07/13 03:22:07;;;;;;;0.10;0.10;;;;;;;;;;4974264;28;20476;-83
2022/07/13 03:24:34;;;;;;;0.10;0.10;;;;;;;;;;4992235;28;20458;-85
2022/07/13 03:27:00;;;;;;;0.10;0.10;;;;;;;;;;4991885;28;20411;-85
2022/07/13 03:29:27;;;;;;;0.10;0.10;;;;;;;;;;4991152;28;20438;-85
2022/07/13 03:31:53;;;;;;;0.10;0.10;;;;;;;;;;4991926;28;20414;-82
2022/07/13 03:34:19;;;;;;;0.10;0.10;;;;;;;;;;4991598;28;20902;-86
2022/07/13 03:36:45;;;;;;;0.22;0.17;;;;;;;;;;4991751;28;20422;-85
2022/07/13 03:39:11;;;;;;;0.10;0.10;;;;;;;;;;4991477;28;20828;-84
2022/07/13 03:41:37;;;;;;;0.10;0.10;;;;;;;;;;4991603;28;20414;-79
2022/07/13 03:44:03;;;;;;;0.10;0.10;;;;;;;;;;4991600;28;20414;-83
2022/07/13 03:46:29;;;;;;;0.10;0.10;;;;;;;;;;4973926;28;20405;-84
2022/07/13 03:48:55;;;;;;;0.10;0.10;;;;;;;;;;4991661;28;20411;-83
2022/07/13 03:51:21;;;;;;;0.10;0.10;;;;;;;;;;4991324;28;20406;-84
2022/07/13 03:53:48;;;;;;;0.10;0.10;;;;;;;;;;4974564;28;20476;-86
2022/07/13 03:56:14;;;;;;;0.10;0.10;;;;;;;;;;4991128;28;20453;-84
2022/07/13 03:58:40;;;;;;;0.10;0.10;;;;;;;;;;4975333;28;20493;-83
2022/07/13 04:01:06;;;;;;;0.10;0.10;;;;;;;;;;4994823;28;20438;-79
2022/07/13 04:03:32;;;;;;;0.10;0.10;;;;;;;;;;4977588;28;20425;-83
2022/07/13 04:05:58;;;;;;;0.10;0.10;;;;;;;;;;4995057;28;20406;-84
2022/07/13 04:08:24;;;;;;;0.20;0.20;;;;;;;;;;4994280;28;20446;-84
2022/07/13 04:10:50;;;;;;;0.15;0.15;;;;;;;;;;4994887;28;20833;-84
2022/07/13 04:13:16;;;;;;;0.10;0.10;;;;;;;;;;4994373;28;20426;-86
2022/07/13 04:15:42;;;;;;;0.25;0.25;;;;;;;;;;4977685;28;20407;-85
2022/07/13 04:18:08;;;;;;;0.10;0.10;;;;;;;;;;4994290;28;20522;-84
2022/07/13 04:20:34;;;;;;;0.10;0.10;;;;;;;;;;4994934;28;20429;-84
2022/07/13 04:23:00;;;;;;;0.10;0.10;;;;;;;;;;4994321;28;20889;-83
2022/07/13 04:25:26;;;;;;;0.10;0.10;;;;;;;;;;4993920;28;20922;-87
2022/07/13 04:27:52;;;;;;;0.10;0.10;;;;;;;;;;4977111;28;20422;-83
2022/07/13 04:30:19;;;;;;;0.10;0.10;;;;;;;;;;4994277;28;20501;-85
2022/07/13 04:32:45;;;;;;;0.30;0.20;;;;;;;;;;4994721;28;20406;-85
2022/07/13 04:35:11;;;;;;;0.10;0.10;;;;;;;;;;4993941;28;20457;-84
2022/07/13 04:37:37;;;;;;;0.10;0.10;;;;;;;;;;4976694;28;20435;-82
2022/07/13 04:40:03;;;;;;;0.10;0.10;;;;;;;;;;4994411;28;20533;-84
2022/07/13 04:42:29;;;;;;;0.10;0.10;;;;;;;;;;4993752;28;20413;-82
2022/07/13 04:44:55;;;;;;;0.10;0.10;;;;;;;;;;4994016;28;20493;-83
2022/07/13 04:47:21;;;;;;;0.10;0.10;;;;;;;;;;4976641;28;20418;-86
2022/07/13 04:49:47;;;;;;;0.10;0.10;;;;;;;;;;4994210;28;20410;-86
2022/07/13 04:52:13;;;;;;;0.15;0.15;;;;;;;;;;4993853;28;20410;-85
2022/07/13 04:54:39;;;;;;;0.10;0.10;;;;;;;;;;4976735;28;20493;-82
2022/07/13 04:57:06;;;;;;;0.10;0.10;;;;;;;;;;4976522;28;20432;-76
2022/07/13 04:59:32;;;;;;;0.10;0.10;;;;;;;;;;4993411;28;20398;-79
2022/07/13 05:01:58;;;;;;;0.10;0.10;;;;;;;;;;4993589;28;20418;-81
2022/07/13 05:04:24;;;;;;;0.10;0.10;;;;;;;;;;4976189;28;20446;-78
2022/07/13 05:06:50;;;;;;;0.10;0.10;;;;;;;;;;4993448;28;20451;-77
2022/07/13 05:09:16;;;;;;;0.10;0.10;;;;;;;;;;4992812;28;20454;-77
2022/07/13 05:11:42;;;;;;;0.10;0.10;;;;;;;;;;4976686;28;20806;-76
2022/07/13 05:14:08;;;;;;;0.10;0.10;;;;;;;;;;4993504;28;20446;-77
2022/07/13 05:16:34;;;;;;;0.10;0.10;;;;;;;;;;4992887;28;20418;-80
2022/07/13 05:19:01;;;;;;;0.10;0.10;;;;;;;;;;4993171;28;20421;-85
2022/07/13 05:21:28;;;;;;;0.10;0.10;;;;;;;;;;4975653;28;20410;-82
2022/07/13 05:23:54;;;;;;;0.10;0.10;;;;;;;;;;4993294;28;20401;-80
2022/07/13 05:26:20;;;;;;;0.10;0.10;;;;;;;;;;4992867;28;20410;-84
2022/07/13 05:28:46;;;;;;;0.10;0.10;;;;;;;;;;4960017;28;20410;-82
2022/07/13 05:31:12;;;;;;;0.10;0.10;;;;;;;;;;4993161;28;20438;-81
2022/07/13 05:33:38;;;;;;;0.10;0.10;;;;;;;;;;4993019;28;20517;-81
2022/07/13 05:36:05;;;;;;;0.10;0.10;;;;;;;;;;4976107;28;20411;-76
2022/07/13 05:38:31;;;;;;;0.10;0.10;;;;;;;;;;4975432;28;20415;-81
2022/07/13 05:40:57;;;;;;;0.20;0.20;;;;;;;;;;4975998;28;20901;-78
2022/07/13 05:43:24;;;;;;;0.10;0.10;;;;;;;;;;4992837;28;20757;-81
2022/07/13 05:45:50;;;;;;;0.10;0.10;;;;;;;;;;4959414;28;20509;-79
2022/07/13 05:48:17;;;;;;;0.10;0.10;;;;;;;;;;4975471;28;20414;-79
2022/07/13 05:50:44;;;;;;;0.20;0.20;;;;;;;;;;4992683;28;20457;-79
2022/07/13 05:53:10;;;;;;;0.10;0.10;;;;;;;;;;4992914;28;20454;-79
2022/07/13 05:55:36;;;;;;;0.30;0.30;;;;;;;;;;4975344;28;20759;-79
2022/07/13 05:58:02;;;;;;;0.10;0.10;;;;;;;;;;4975313;28;20998;-79
2022/07/13 06:00:28;;;;;;;0.10;0.10;;;;;;;;;;4992489;28;20406;-79
2022/07/13 06:02:54;;;;;;;0.10;0.10;;;;;;;;;;4992657;28;20406;-79
2022/07/13 06:05:20;;;;;;;0.10;0.10;;;;;;;;;;4992303;28;20881;-79
2022/07/13 06:07:46;;;;;;;0.80;0.20;;;;;;;;;;4959455;28;20883;-79
2022/07/13 06:10:13;;;;;;;0.10;0.10;;;;;;;;;;4955418;28;20430;-80
2022/07/13 06:12:39;;;;;;;0.10;0.10;;;;;;;;;;4953484;28;20516;-79
2022/07/13 06:15:05;;;;;;;0.10;0.10;;;;;;;;;;4952955;29;20418;-80
2022/07/13 06:17:31;;;;;;;0.10;0.10;;;;;;;;;;4953553;29;20433;-80
2022/07/13 06:19:57;;;;;;;0.40;0.30;;;;;;;;;;4953660;29;20401;-80
2022/07/13 06:22:23;;;;;;;0.10;0.10;;;;;;;;;;4951881;28;20424;-80
2022/07/13 06:24:49;;;;;;;0.10;0.10;;;;;;;;;;4953501;29;20464;-80
2022/07/13 06:27:15;;;;;;;0.20;0.20;;;;;;;;;;4953867;28;20406;-79
2022/07/13 06:29:41;;;;;;;0.10;0.10;;;;;;;;;;4952191;28;20409;-77
2022/07/13 06:32:08;;;;;;;0.10;0.10;;;;;;;;;;4953377;28;20750;-81
2022/07/13 06:34:34;;;;;;;0.95;0.20;;;;;;;;;;4953500;29;20420;-80
2022/07/13 06:37:00;;;;;;;0.10;0.10;;;;;;;;;;4953353;29;20434;-81
2022/07/13 06:39:26;;;;;;;0.10;0.10;;;;;;;;;;4953004;28;20453;-81
2022/07/13 06:41:52;;;;;;;0.10;0.10;;;;;;;;;;4952134;29;20916;-83
2022/07/13 06:44:18;;;;;;;0.10;0.10;;;;;;;;;;4953253;29;20428;-78
2022/07/13 06:46:44;;;;;;;0.30;0.20;;;;;;;;;;4951557;29;20493;-79
2022/07/13 06:49:10;;;;;;;0.10;0.10;;;;;;;;;;4952974;29;20897;-79
2022/07/13 06:51:36;;;;;;;0.10;0.10;;;;;;;;;;4952939;29;20468;-80
2022/07/13 06:54:02;;;;;;;0.17;0.15;;;;;;;;;;4952306;29;20500;-80
2022/07/13 06:56:29;;;;;;;0.70;0.30;;;;;;;;;;4952836;29;20894;-80
2022/07/13 06:58:55;;;;;;;0.40;0.40;;;;;;;;;;4953018;29;20442;-80
2022/07/13 07:01:21;;;;;;;0.25;0.20;;;;;;;;;;4953355;29;20464;-79
2022/07/13 07:03:48;;;;;;;0.40;0.30;;;;;;;;;;4952903;28;20445;-79
2022/07/13 07:06:14;;;;;;;0.10;0.10;;;;;;;;;;4952142;28;20414;-76
2022/07/13 07:08:40;;;;;;;0.10;0.10;;;;;;;;;;4960348;28;20418;-79
2022/07/13 07:11:06;;;;;;;0.20;0.20;;;;;;;;;;4991964;28;20418;-75
2022/07/13 07:13:32;;;;;;;0.20;0.20;;;;;;;;;;4991654;28;20486;-80
2022/07/13 07:15:59;;;;;;;0.10;0.10;;;;;;;;;;4991861;28;20973;-76
2022/07/13 07:18:25;;;;;;;0.10;0.10;;;;;;;;;;4991679;28;20754;-80
2022/07/13 07:20:51;;;;;;;0.10;0.10;;;;;;;;;;4974709;28;20450;-82
2022/07/13 07:23:17;;;;;;;0.30;0.30;;;;;;;;;;4991497;28;20420;-78
2022/07/13 07:25:43;;;;;;;0.10;0.10;;;;;;;;;;4991256;28;20403;-78
2022/07/13 07:28:10;;;;;;;0.20;0.20;;;;;;;;;;4991731;28;20532;-78
2022/07/13 07:30:36;;;;;;;0.10;0.10;;;;;;;;;;4991444;28;20781;-85
2022/07/13 07:33:02;;;;;;;0.10;0.10;;;;;;;;;;4992763;28;20495;-78
2022/07/13 07:35:29;;;;;;;0.30;0.30;;;;;;;;;;4995219;28;20469;-78
2022/07/13 07:37:55;;;;;;;0.30;0.20;;;;;;;;;;4994924;28;20426;-77
2022/07/13 07:40:21;;;;;;;0.10;0.10;;;;;;;;;;4995396;28;20415;-75
2022/07/13 07:42:47;;;;;;;0.10;0.10;;;;;;;;;;4977892;28;20410;-83
2022/07/13 07:45:13;;;;;;;0.10;0.10;;;;;;;;;;4995018;28;20414;-76
2022/07/13 07:47:39;;;;;;;0.13;0.13;;;;;;;;;;4994842;28;20612;-83
2022/07/13 07:50:06;;;;;;;0.10;0.10;;;;;;;;;;4995296;28;20406;-81
2022/07/13 07:52:32;;;;;;;0.50;0.50;;;;;;;;;;4994767;28;20446;-80
2022/07/13 07:54:58;;;;;;;0.30;0.30;;;;;;;;;;4994684;28;20767;-83
2022/07/13 07:57:25;;;;;;;0.15;0.10;;;;;;;;;;4994636;28;20423;-82
2022/07/13 07:59:51;;;;;;;0.10;0.10;;;;;;;;;;4977631;28;20406;-84
2022/07/13 08:02:17;;;;;;;0.20;0.20;;;;;;;;;;4994916;28;20410;-76
2022/07/13 08:04:44;;;;;;;0.10;0.10;;;;;;;;;;4977552;28;20415;-76
2022/07/13 08:07:11;;;;;;;0.10;0.10;;;;;;;;;;4994877;28;20407;-77
2022/07/13 08:09:37;;;;;;;0.15;0.15;;;;;;;;;;4976731;28;20734;-78
2022/07/13 08:12:04;;;;;;;0.28;0.22;;;;;;;;;;4994492;28;20411;-78
2022/07/13 08:14:30;;;;;;;0.10;0.10;;;;;;;;;;4994623;28;20414;-77
2022/07/13 08:16:56;;;;;;;0.25;0.22;;;;;;;;;;4994624;28;20427;-77
2022/07/13 08:19:24;;;;;;;0.10;0.10;;;;;;;;;;4994669;28;20410;-77
2022/07/13 08:21:50;;;;;;;0.30;0.30;;;;;;;;;;4993981;28;20464;-77
2022/07/13 08:24:16;;;;;;;0.10;0.10;;;;;;;;;;4994804;28;20429;-81
2022/07/13 08:26:42;;;;;;;0.10;0.10;;;;;;;;;;4960872;28;20825;-77
2022/07/13 08:29:08;;;;;;;0.10;0.10;;;;;;;;;;4994523;28;20501;-78
2022/07/13 08:31:35;;;;;;;0.10;0.10;;;;;;;;;;4994040;28;20493;-79
2022/07/13 08:39:31;;;;;;;0.10;0.10;;;;;;;;;;4994468;28;20413;-80
2022/07/13 08:42:00;;;;;;;0.20;0.20;;;;;;;;;;4994104;28;20489;-81
2022/07/13 08:44:27;;;;;;;0.10;0.10;;;;;;;;;;4993586;28;20414;-77
2022/07/13 08:46:53;;;;;;;0.10;0.10;;;;;;;;;;4993732;28;20407;-83
2022/07/13 08:49:20;;;;;;;0.40;0.10;;;;;;;;;;4994074;28;20415;-80
2022/07/13 08:51:47;;;;;;;0.10;0.10;;;;;;;;;;4993864;28;20418;-80
2022/07/13 08:54:14;;;;;;;1.10;0.30;;;;;;;;;;4976508;28;20754;-81
2022/07/13 08:56:43;;;;;;;0.30;0.30;;;;;;;;;;4993750;28;20434;-81
2022/07/13 08:59:09;;;;;;;0.10;0.10;;;;;;;;;;4976733;28;20762;-80
2022/07/13 09:01:35;;;;;;;0.10;0.10;;;;;;;;;;4976344;28;20427;-80
2022/07/13 09:04:01;;;;;;;0.10;0.10;;;;;;;;;;4993761;28;20496;-81
2022/07/13 09:06:40;;;;;;;0.20;0.20;;;;;;;;;;4993942;28;20477;-85
2022/07/13 09:09:23;;;;;;;0.20;0.20;;;;;;;;;;4993128;28;20517;-82
2022/07/13 09:11:49;;;;;;;0.30;0.30;;;;;;;;;;4992997;28;20414;-78
2022/07/13 09:14:25;;;;;;;0.10;0.10;;;;;;;;;;4993531;28;20481;-79
2022/07/13 09:16:52;;;;;;;0.10;0.10;;;;;;;;;;4975951;28;20430;-88
2022/07/13 09:19:18;;;;;;;0.10;0.10;;;;;;;;;;4993473;28;20411;-79
2022/07/13 09:21:44;;;;;;;0.40;0.30;;;;;;;;;;4993293;28;20402;-79
2022/07/13 09:24:10;;;;;;;0.10;0.10;;;;;;;;;;4993463;28;20490;-78
2022/07/13 09:26:43;;;;;;;0.10;0.10;;;;;;;;;;4993215;28;20438;-79
2022/07/13 09:29:12;;;;;;;0.20;0.20;;;;;;;;;;4992998;28;20424;-80
2022/07/13 09:31:52;;;;;;;0.10;0.10;;;;;;;;;;4992654;28;20454;-79
2022/07/13 09:34:18;;;;;;;0.30;0.20;;;;;;;;;;4993282;28;20437;-76
2022/07/13 09:36:45;;;;;;;0.10;0.10;;;;;;;;;;4992879;28;20422;-82
2022/07/13 09:39:11;;;;;;;0.10;0.10;;;;;;;;;;4996537;28;20411;-80
2022/07/13 09:41:37;;;;;;;0.17;0.17;;;;;;;;;;4995954;28;20924;-82
2022/07/13 09:46:58;;;;;;;0.10;0.10;;;;;;;;;;4991609;28;20453;-81
2022/07/13 09:49:30;;;;;;;0.10;0.10;;;;;;;;;;4992718;28;20413;-83
2022/07/13 09:51:59;;;;;;;0.10;0.10;;;;;;;;;;4992479;28;20497;-82
2022/07/13 09:54:29;;;;;;;1.00;0.20;;;;;;;;;;4992790;28;20414;-82
2022/07/13 09:56:59;;;;;;;0.10;0.10;;;;;;;;;;4991306;28;20422;-82
2022/07/13 09:59:26;;;;;;;0.70;0.40;;;;;;;;;;4975098;28;20812;-81
2022/07/13 10:01:52;;;;;;;0.50;0.30;;;;;;;;;;4991847;28;20420;-81
2022/07/13 10:04:18;;;;;;;0.10;0.10;;;;;;;;;;4992129;28;20414;-81
2022/07/13 10:06:45;;;;;;;0.10;0.10;;;;;;;;;;4991980;28;20411;-82
2022/07/13 10:09:11;;;;;;;0.10;0.10;;;;;;;;;;4992049;28;20414;-81
2022/07/13 10:11:37;;;;;;;0.10;0.10;;;;;;;;;;4975187;28;20533;-81
2022/07/13 10:14:07;;;;;;;0.30;0.15;;;;;;;;;;4991980;28;21048;-83
2022/07/13 10:16:33;;;;;;;0.10;0.10;;;;;;;;;;4992153;28;20498;-79
2022/07/13 10:19:03;;;;;;;0.10;0.10;;;;;;;;;;4974441;28;20797;-79
2022/07/13 10:21:44;;;;;;;0.10;0.10;;;;;;;;;;4992229;28;20465;-79
2022/07/13 10:24:14;;;;;;;0.10;0.10;;;;;;;;;;4992307;28;20407;-79
2022/07/13 10:26:40;;;;;;;0.10;0.10;;;;;;;;;;4992217;28;20490;-79
2022/07/13 10:29:08;;;;;;;0.10;0.10;;;;;;;;;;4991849;28;20411;-78
2022/07/13 10:31:36;;;;;;;0.20;0.20;;;;;;;;;;4992072;28;20937;-79
2022/07/13 10:34:02;;;;;;;0.20;0.20;;;;;;;;;;4991656;28;21093;-79
2022/07/13 10:36:47;;;;;;;0.10;0.10;;;;;;;;;;4991804;28;20422;-81
2022/07/13 10:39:13;;;;;;;0.20;0.20;;;;;;;;;;4975002;28;20407;-80
2022/07/13 10:41:59;;;;;;;0.10;0.10;;;;;;;;;;4991965;28;20485;-78
2022/07/13 10:44:41;;;;;;;0.10;0.10;;;;;;;;;;4992591;28;20496;-81
2022/07/13 10:47:19;;;;;;;0.27;0.27;;;;;;;;;;4991323;28;20476;-81
2022/07/13 10:49:51;;;;;;;0.10;0.10;;;;;;;;;;4991855;28;20765;-81
2022/07/13 10:52:20;;;;;;;0.20;0.20;;;;;;;;;;4992117;28;20490;-81
2022/07/13 10:55:09;;;;;;;0.10;0.10;;;;;;;;;;4991688;28;20414;-81
2022/07/13 10:57:36;;;;;;;0.10;0.10;;;;;;;;;;4991936;28;20430;-80
2022/07/13 11:00:16;;;;;;;0.50;0.30;;;;;;;;;;4991707;28;20410;-80
2022/07/13 11:02:54;;;;;;;0.10;0.10;;;;;;;;;;4991800;28;20438;-81
2022/07/13 11:05:30;;;;;;;0.25;0.10;;;;;;;;;;4991698;28;20414;-81
2022/07/13 11:07:56;;;;;;;0.22;0.22;;;;;;;;;;4993312;28;20469;-81
2022/07/13 11:10:26;;;;;;;0.30;0.20;;;;;;;;;;4995819;28;20410;-81
2022/07/13 11:13:09;;;;;;;0.10;0.10;;;;;;;;;;4995844;28;20416;-81
2022/07/13 11:15:42;;;;;;;0.10;0.10;;;;;;;;;;4996135;28;20414;-81
2022/07/13 11:18:23;;;;;;;0.10;0.10;;;;;;;;;;4995624;28;20454;-81
2022/07/13 11:21:16;;;;;;;0.20;0.20;;;;;;;;;;4995335;28;20967;-81
2022/07/13 11:26:32;;;;;;;0.20;0.20;;;;;;;;;;4994990;28;20892;-83
2022/07/13 11:28:58;;;;;;;0.10;0.10;;;;;;;;;;4994881;28;20508;-85
2022/07/13 11:31:24;;;;;;;0.85;0.17;;;;;;;;;;4995396;28;20403;-85
2022/07/13 11:33:51;;;;;;;0.10;0.10;;;;;;;;;;4994878;28;20410;-81
2022/07/13 11:36:24;;;;;;;0.10;0.10;;;;;;;;;;4978068;28;20418;-83
2022/07/13 11:38:51;;;;;;;0.20;0.20;;;;;;;;;;4995014;28;20410;-81
2022/07/13 11:41:21;;;;;;;0.20;0.20;;;;;;;;;;4995261;28;20402;-84
2022/07/13 11:43:53;;;;;;;0.10;0.10;;;;;;;;;;4994935;28;20956;-83
2022/07/13 11:46:26;;;;;;;0.20;0.20;;;;;;;;;;4978426;28;20750;-84
2022/07/13 11:49:03;;;;;;;0.10;0.10;;;;;;;;;;4978419;28;20670;-83
2022/07/13 11:51:29;;;;;;;0.20;0.20;;;;;;;;;;4994841;28;20411;-86
2022/07/13 11:53:55;;;;;;;0.20;0.20;;;;;;;;;;4994550;28;20760;-83
2022/07/13 11:56:22;;;;;;;0.10;0.10;;;;;;;;;;4977644;28;20536;-88
2022/07/13 11:58:49;;;;;;;0.10;0.10;;;;;;;;;;4994782;28;20417;-86
2022/07/13 12:01:17;;;;;;;0.10;0.10;;;;;;;;;;4994221;28;20410;-80
2022/07/13 12:03:48;;;;;;;0.10;0.10;;;;;;;;;;4993093;28;20410;-83
2022/07/13 12:06:14;;;;;;;0.10;0.10;;;;;;;;;;4977261;28;20416;-82
2022/07/13 12:08:40;;;;;;;0.20;0.20;;;;;;;;;;4976807;28;20445;-80
2022/07/13 12:11:08;;;;;;;0.10;0.10;;;;;;;;;;4977024;28;20473;-81
2022/07/13 12:13:35;;;;;;;0.10;0.10;;;;;;;;;;4994871;28;20417;-83
2022/07/13 12:16:02;;;;;;;3.50;0.15;;;;;;;;;;4994727;28;20406;-82
2022/07/13 12:18:29;;;;;;;0.10;0.10;;;;;;;;;;4994356;28;20426;-82
2022/07/13 12:20:55;;;;;;;0.10;0.10;;;;;;;;;;4993792;28;20945;-81
2022/07/13 12:23:21;;;;;;;0.10;0.10;;;;;;;;;;4977812;28;20565;-82
2022/07/13 12:25:48;;;;;;;0.10;0.10;;;;;;;;;;4977334;28;20402;-82
2022/07/13 12:28:14;;;;;;;0.10;0.10;;;;;;;;;;4976977;28;20415;-82
2022/07/13 12:31:00;;;;;;;0.00;0.00;;;;;;;;;;4977506;28;20414;-81
2022/07/13 12:33:26;;;;;;;0.10;0.10;;;;;;;;;;4994234;28;20504;-82
2022/07/13 12:36:03;;;;;;;0.10;0.10;;;;;;;;;;4994722;28;20402;-81
2022/07/13 12:38:30;;;;;;;0.15;0.15;;;;;;;;;;4976968;28;21070;-82
2022/07/13 12:40:58;;;;;;;0.10;0.10;;;;;;;;;;4994036;28;20414;-81
2022/07/13 12:43:31;;;;;;;0.10;0.10;;;;;;;;;;4994472;28;20414;-82
2022/07/13 12:46:01;;;;;;;0.50;0.50;;;;;;;;;;4993813;28;20413;-81
2022/07/13 12:48:28;;;;;;;6.80;0.70;;;;;;;;;;4977047;28;20497;-82
2022/07/13 12:51:03;;;;;;;0.10;0.10;;;;;;;;;;4994083;28;20418;-81
2022/07/13 12:53:48;;;;;;;0.20;0.20;;;;;;;;;;4994172;28;20411;-82
2022/07/13 12:56:17;;;;;;;0.10;0.10;;;;;;;;;;4993965;28;20414;-82
2022/07/13 12:58:47;;;;;;;0.10;0.10;;;;;;;;;;4994013;28;20415;-81
2022/07/13 13:01:27;;;;;;;0.10;0.10;;;;;;;;;;4976367;28;20419;-81
2022/07/13 13:03:54;;;;;;;0.10;0.10;;;;;;;;;;4976908;28;20419;-81
2022/07/13 13:06:20;;;;;;;0.10;0.10;;;;;;;;;;4993619;28;20423;-82
2022/07/13 13:08:46;;;;;;;0.20;0.20;;;;;;;;;;4993384;28;20426;-82
2022/07/13 13:11:12;;;;;;;0.20;0.20;;;;;;;;;;4976349;28;20454;-82
2022/07/13 13:13:38;;;;;;;0.10;0.10;;;;;;;;;;4976704;28;20441;-81
2022/07/13 13:16:04;;;;;;;0.20;0.13;;;;;;;;;;4993557;28;20490;-81
2022/07/13 13:18:30;;;;;;;0.10;0.10;;;;;;;;;;4993342;28;20959;-82
2022/07/13 13:20:56;;;;;;;0.10;0.10;;;;;;;;;;4976349;28;20419;-81
2022/07/13 13:23:22;;;;;;;0.10;0.10;;;;;;;;;;4993742;28;20483;-82
2022/07/13 13:25:48;;;;;;;0.10;0.10;;;;;;;;;;4993207;28;20491;-82
2022/07/13 13:28:14;;;;;;;0.20;0.20;;;;;;;;;;4992936;28;20731;-83
2022/07/13 13:30:43;;;;;;;3.53;0.30;;;;;;;;;;4993511;28;20897;-82
2022/07/13 13:33:10;;;;;;;0.40;0.40;;;;;;;;;;4993217;28;20453;-81
2022/07/13 13:35:36;;;;;;;0.10;0.10;;;;;;;;;;4993476;28;20779;-82
2022/07/13 13:38:02;;;;;;;0.25;0.22;;;;;;;;;;4975578;28;20461;-81
2022/07/13 13:40:28;;;;;;;0.10;0.10;;;;;;;;;;4975884;28;20422;-82
2022/07/13 13:42:54;;;;;;;0.20;0.20;;;;;;;;;;4993155;28;20497;-81
2022/07/13 13:45:21;;;;;;;0.10;0.10;;;;;;;;;;4975874;28;20434;-81
2022/07/13 13:47:47;;;;;;;0.10;0.10;;;;;;;;;;4992922;28;20494;-81
2022/07/13 13:50:13;;;;;;;0.10;0.10;;;;;;;;;;4992752;28;20414;-82
2022/07/13 13:52:39;;;;;;;0.10;0.10;;;;;;;;;;4993151;28;20403;-82
2022/07/13 13:55:05;;;;;;;0.10;0.10;;;;;;;;;;4959501;28;20418;-81
2022/07/13 13:57:32;;;;;;;0.30;0.30;;;;;;;;;;4975554;28;20767;-82
2022/07/13 13:59:58;;;;;;;0.20;0.20;;;;;;;;;;4976000;28;20469;-81
2022/07/13 14:02:24;;;;;;;0.10;0.10;;;;;;;;;;4975373;28;20410;-81
2022/07/13 14:04:50;;;;;;;0.10;0.10;;;;;;;;;;4975592;28;20956;-81
2022/07/13 14:07:16;;;;;;;0.10;0.10;;;;;;;;;;4992405;28;20410;-82
2022/07/13 14:09:42;;;;;;;0.10;0.10;;;;;;;;;;4975442;28;20422;-81
2022/07/13 14:12:09;;;;;;;0.10;0.10;;;;;;;;;;4992723;28;20500;-82
2022/07/13 14:14:35;;;;;;;0.10;0.10;;;;;;;;;;4992756;28;20406;-82
2022/07/13 14:17:01;;;;;;;0.10;0.10;;;;;;;;;;4959246;28;20422;-82
2022/07/13 14:19:27;;;;;;;0.10;0.10;;;;;;;;;;4992101;28;20433;-81
2022/07/13 14:21:53;;;;;;;0.10;0.10;;;;;;;;;;4992992;28;20765;-82
2022/07/13 14:24:19;;;;;;;0.10;0.10;;;;;;;;;;4992079;28;20445;-82
2022/07/13 14:26:45;;;;;;;0.10;0.10;;;;;;;;;;4975477;28;20421;-81
2022/07/13 14:29:11;;;;;;;0.10;0.10;;;;;;;;;;4991786;28;20440;-81
2022/07/13 14:31:37;;;;;;;0.13;0.13;;;;;;;;;;4975290;28;20549;-82
2022/07/13 14:34:03;;;;;;;0.10;0.10;;;;;;;;;;4992531;28;20406;-81
2022/07/13 14:36:29;;;;;;;0.60;0.40;;;;;;;;;;4992141;28;20410;-81
2022/07/13 14:38:55;;;;;;;0.10;0.10;;;;;;;;;;4992089;28;20931;-81
2022/07/13 14:41:21;;;;;;;0.10;0.10;;;;;;;;;;4958678;28;20425;-81
2022/07/13 14:43:48;;;;;;;0.38;0.20;;;;;;;;;;4991676;28;20406;-81
2022/07/13 14:46:14;;;;;;;0.10;0.10;;;;;;;;;;4974727;28;20537;-80
2022/07/13 14:48:40;;;;;;;1.20;0.30;;;;;;;;;;4975081;28;20914;-81
2022/07/13 14:51:06;;;;;;;0.10;0.10;;;;;;;;;;4991990;28;20453;-82
2022/07/13 14:53:32;;;;;;;0.10;0.10;;;;;;;;;;4974867;28;20414;-81
2022/07/13 14:55:58;;;;;;;0.10;0.10;;;;;;;;;;4992084;28;20923;-81